createdAt,value
2018-06-03T00:01:31.818Z,15.63
2018-06-03T00:03:59.427Z,17.70
2018-06-03T00:06:27.076Z,17.10
2018-06-03T00:08:54.687Z,16.53
2018-06-03T00:11:23.055Z,15.33
2018-06-03T00:13:51.417Z,15.60
2018-06-03T00:16:19.494Z,19.27
2018-06-03T00:18:47.241Z,17.03
2018-06-03T00:21:35.542Z,17.20
2018-06-03T00:24:03.166Z,19.73
2018-06-03T00:26:30.801Z,17.07
2018-06-03T00:28:58.382Z,14.63
2018-06-03T00:31:25.978Z,15.73
2018-06-03T00:33:54.355Z,15.00
2018-06-03T00:36:33.527Z,13.63
2018-06-03T00:39:01.131Z,16.10
2018-06-03T00:41:28.728Z,16.93
2018-06-03T00:43:56.331Z,17.37
2018-06-03T00:46:23.957Z,19.60
2018-06-03T00:48:51.532Z,19.23
2018-06-03T00:51:19.124Z,19.03
2018-06-03T00:53:46.717Z,18.67
2018-06-03T00:59:46.534Z,18.70
2018-06-03T01:02:15.195Z,17.50
2018-06-03T01:04:44.098Z,15.07
2018-06-03T01:07:12.785Z,15.73
2018-06-03T01:09:41.635Z,15.87
2018-06-03T01:12:10.369Z,15.23
2018-06-03T01:14:39.083Z,18.13
2018-06-03T01:17:07.805Z,20.27
2018-06-03T01:19:36.922Z,20.77
2018-06-03T01:22:05.620Z,20.83
2018-06-03T01:24:34.290Z,20.37
2018-06-03T01:27:03.065Z,21.17
2018-06-03T01:29:31.765Z,19.03
2018-06-03T01:32:00.493Z,18.63
2018-06-03T01:34:29.170Z,17.70
2018-06-03T01:36:57.883Z,15.70
2018-06-03T01:39:26.552Z,15.00
2018-06-03T01:41:55.262Z,16.50
2018-06-03T01:44:23.979Z,16.47
2018-06-03T01:46:52.683Z,15.37
2018-06-03T01:49:21.463Z,15.33
2018-06-03T01:51:50.157Z,14.70
2018-06-03T01:54:18.864Z,15.83
2018-06-03T01:56:47.547Z,15.07
2018-06-03T01:59:16.224Z,15.47
2018-06-03T02:01:44.844Z,17.60
2018-06-03T02:04:13.587Z,17.73
2018-06-03T02:06:42.298Z,16.70
2018-06-03T02:09:11.177Z,16.10
2018-06-03T02:11:39.916Z,14.90
2018-06-03T02:14:08.615Z,14.87
2018-06-03T02:16:37.460Z,15.63
2018-06-03T02:19:06.182Z,14.97
2018-06-03T02:21:34.961Z,15.83
2018-06-03T02:24:03.685Z,19.17
2018-06-03T02:26:32.421Z,17.77
2018-06-03T02:29:01.651Z,16.70
2018-06-03T02:31:30.340Z,15.33
2018-06-03T02:33:59.019Z,15.57
2018-06-03T02:36:27.739Z,15.50
2018-06-03T02:38:57.018Z,16.37
2018-06-03T02:41:25.767Z,16.53
2018-06-03T02:43:54.405Z,17.50
2018-06-03T02:46:23.098Z,17.43
2018-06-03T02:48:51.783Z,17.97
2018-06-03T02:51:20.522Z,17.17
2018-06-03T02:53:49.202Z,18.50
2018-06-03T02:56:18.110Z,17.80
2018-06-03T02:58:46.781Z,16.37
2018-06-03T03:01:15.518Z,13.70
2018-06-03T03:03:44.194Z,14.87
2018-06-03T03:06:12.969Z,13.87
2018-06-03T03:08:41.686Z,14.57
2018-06-03T03:11:10.344Z,16.30
2018-06-03T03:13:39.117Z,13.53
2018-06-03T03:16:07.844Z,13.77
2018-06-03T03:18:36.571Z,13.47
2018-06-03T03:21:05.295Z,13.97
2018-06-03T03:23:34.006Z,15.27
2018-06-03T03:26:02.771Z,15.90
2018-06-03T03:28:31.469Z,16.37
2018-06-03T03:31:00.153Z,18.70
2018-06-03T03:33:28.830Z,19.77
2018-06-03T03:35:57.618Z,17.90
2018-06-03T03:38:26.514Z,17.30
2018-06-03T03:40:55.539Z,16.37
2018-06-03T03:43:24.222Z,19.80
2018-06-03T03:45:52.880Z,17.53
2018-06-03T03:48:21.608Z,16.33
2018-06-03T03:50:50.661Z,14.57
2018-06-03T03:53:19.358Z,17.73
2018-06-03T03:55:48.038Z,15.77
2018-06-03T03:58:20.175Z,15.60
2018-06-03T04:00:49.085Z,15.30
2018-06-03T04:03:17.796Z,15.13
2018-06-03T04:05:46.893Z,16.97
2018-06-03T04:08:16.082Z,15.83
2018-06-03T04:10:44.852Z,17.87
2018-06-03T04:13:13.634Z,17.50
2018-06-03T04:15:42.325Z,17.07
2018-06-03T04:18:11.476Z,17.07
2018-06-03T04:20:40.485Z,17.93
2018-06-03T04:23:09.230Z,16.93
2018-06-03T04:25:38.090Z,16.87
2018-06-03T04:28:07.091Z,17.57
2018-06-03T04:30:35.786Z,17.67
2018-06-03T04:33:04.405Z,16.17
2018-06-03T04:35:33.152Z,16.27
2018-06-03T04:38:01.868Z,15.67
2018-06-03T04:40:30.522Z,15.10
2018-06-03T04:42:59.222Z,15.90
2018-06-03T04:45:27.863Z,16.17
2018-06-03T04:47:56.542Z,17.17
2018-06-03T04:50:25.212Z,17.27
2018-06-03T04:52:53.876Z,19.43
2018-06-03T04:55:22.568Z,17.87
2018-06-03T04:57:51.271Z,18.57
2018-06-03T05:00:19.946Z,18.20
2018-06-03T05:02:48.704Z,15.07
2018-06-03T05:05:17.435Z,15.53
2018-06-03T05:07:46.230Z,15.10
2018-06-03T05:10:14.881Z,13.93
2018-06-03T05:12:43.543Z,13.03
2018-06-03T05:15:12.245Z,14.77
2018-06-03T05:17:40.879Z,13.03
2018-06-03T05:20:09.556Z,13.63
2018-06-03T05:22:38.456Z,12.70
2018-06-03T05:25:07.141Z,14.47
2018-06-03T05:27:35.833Z,17.20
2018-06-03T05:30:04.814Z,17.03
2018-06-03T05:32:33.437Z,16.27
2018-06-03T05:35:02.101Z,15.40
2018-06-03T05:37:30.737Z,17.77
2018-06-03T05:39:59.453Z,20.37
2018-06-03T05:42:28.131Z,19.17
2018-06-03T05:44:56.849Z,18.60
2018-06-03T05:47:25.515Z,20.37
2018-06-03T05:49:54.212Z,20.23
2018-06-03T05:52:22.939Z,20.13
2018-06-03T05:54:51.595Z,19.53
2018-06-03T05:57:20.241Z,19.10
2018-06-03T05:59:48.941Z,18.70
2018-06-03T06:02:17.621Z,18.03
2018-06-03T06:04:46.350Z,19.27
2018-06-03T06:07:16.047Z,18.43
2018-06-03T06:09:44.751Z,18.37
2018-06-03T06:12:13.479Z,17.07
2018-06-03T06:14:42.170Z,20.10
2018-06-03T06:17:10.892Z,19.57
2018-06-03T06:19:39.627Z,19.97
2018-06-03T06:22:08.350Z,20.43
2018-06-03T06:24:37.032Z,22.00
2018-06-03T06:27:05.743Z,22.47
2018-06-03T06:29:34.386Z,20.43
2018-06-03T06:32:03.046Z,20.97
2018-06-03T06:34:31.770Z,20.95
2018-06-03T06:37:01.057Z,22.63
2018-06-03T06:39:29.792Z,21.93
2018-06-03T06:41:58.471Z,21.53
2018-06-03T06:44:26.808Z,23.83
2018-06-03T06:46:55.493Z,25.50
2018-06-03T06:49:24.228Z,28.00
2018-06-03T06:51:52.899Z,25.05
2018-06-03T06:54:21.581Z,26.15
2018-06-03T06:56:50.239Z,27.82
2018-06-03T06:59:19.006Z,29.23
2018-06-03T07:01:47.682Z,31.07
2018-06-03T07:04:16.370Z,30.17
2018-06-03T07:06:45.099Z,26.73
2018-06-03T07:09:13.806Z,23.90
2018-06-03T07:11:44.242Z,28.92
2018-06-03T07:14:13.010Z,25.68
2018-06-03T07:16:44.638Z,28.02
2018-06-03T07:19:13.289Z,29.70
2018-06-03T07:21:42.277Z,31.75
2018-06-03T07:24:11.741Z,32.80
2018-06-03T07:26:40.885Z,29.60
2018-06-03T07:29:09.589Z,27.95
2018-06-03T07:31:38.310Z,28.15
2018-06-03T07:34:07.001Z,27.75
2018-06-03T07:36:35.657Z,26.12
2018-06-03T07:39:05.713Z,29.23
2018-06-03T07:41:34.366Z,29.95
2018-06-03T07:44:03.328Z,28.55
2018-06-03T07:46:32.012Z,28.80
2018-06-03T07:49:00.935Z,30.70
2018-06-03T07:51:29.618Z,28.85
2018-06-03T07:53:58.286Z,29.35
2018-06-03T07:56:26.918Z,28.40
2018-06-03T07:58:55.537Z,29.27
2018-06-03T08:01:24.244Z,29.02
2018-06-03T08:03:53.072Z,28.92
2018-06-03T08:06:28.026Z,32.42
2018-06-03T08:08:56.811Z,29.85
2018-06-03T08:11:25.476Z,28.38
2018-06-03T08:13:54.165Z,29.02
2018-06-03T08:16:22.831Z,29.63
2018-06-03T08:18:51.470Z,30.23
2018-06-03T08:21:20.152Z,28.98
2018-06-03T08:23:48.858Z,25.60
2018-06-03T08:26:17.537Z,24.05
2018-06-03T08:28:46.228Z,23.18
2018-06-03T08:31:14.906Z,19.50
2018-06-03T08:33:43.583Z,19.82
2018-06-03T08:36:12.247Z,21.93
2018-06-03T08:38:40.950Z,18.30
2018-06-03T08:41:09.614Z,21.68
2018-06-03T08:43:38.254Z,20.05
2018-06-03T08:46:06.923Z,20.95
2018-06-03T08:48:35.615Z,23.52
2018-06-03T08:51:04.321Z,21.85
2018-06-03T08:53:32.987Z,21.57
2018-06-03T08:56:01.711Z,22.67
2018-06-03T08:58:30.391Z,20.40
2018-06-03T09:00:58.724Z,20.27
2018-06-03T09:03:27.393Z,21.12
2018-06-03T09:05:56.095Z,22.10
2018-06-03T09:08:24.825Z,21.80
2018-06-03T09:10:53.574Z,21.33
2018-06-03T09:13:26.463Z,17.07
2018-06-03T09:15:55.153Z,20.43
2018-06-03T09:18:23.820Z,24.50
2018-06-03T09:20:52.501Z,24.00
2018-06-03T09:23:21.151Z,21.45
2018-06-03T09:25:49.859Z,20.62
2018-06-03T09:28:18.545Z,19.87
2018-06-03T09:30:47.232Z,18.87
2018-06-03T09:33:15.880Z,19.75
2018-06-03T09:35:44.574Z,12.73
2018-06-03T09:38:13.271Z,15.13
2018-06-03T09:40:41.917Z,16.35
2018-06-03T09:43:10.602Z,19.40
2018-06-03T09:45:39.289Z,18.80
2018-06-03T09:48:07.977Z,17.40
2018-06-03T09:50:36.649Z,16.73
2018-06-03T09:53:05.425Z,17.82
2018-06-03T09:55:34.035Z,15.98
2018-06-03T09:58:02.710Z,15.38
2018-06-03T10:00:33.230Z,14.07
2018-06-03T10:03:02.655Z,15.40
2018-06-03T10:05:31.313Z,14.65
2018-06-03T10:07:59.950Z,12.60
2018-06-03T10:10:28.612Z,12.35
2018-06-03T10:12:57.323Z,12.90
2018-06-03T10:15:25.924Z,16.00
2018-06-03T10:17:54.573Z,16.77
2018-06-03T10:20:23.268Z,15.70
2018-06-03T10:22:51.997Z,13.58
2018-06-03T10:25:20.610Z,15.53
2018-06-03T10:27:49.902Z,14.87
2018-06-03T10:30:18.548Z,15.40
2018-06-03T10:32:46.878Z,13.13
2018-06-03T10:35:16.954Z,12.00
2018-06-03T10:37:45.745Z,11.30
2018-06-03T10:40:14.699Z,14.20
2018-06-03T10:42:43.331Z,13.40
2018-06-03T10:45:11.973Z,13.62
2018-06-03T10:47:40.605Z,13.58
2018-06-03T10:50:08.954Z,14.00
2018-06-03T10:52:37.609Z,12.05
2018-06-03T10:55:06.237Z,11.95
2018-06-03T10:57:34.950Z,11.45
2018-06-03T11:00:03.634Z,12.20
2018-06-03T11:02:32.367Z,12.58
2018-06-03T11:05:01.024Z,11.12
2018-06-03T11:07:29.682Z,12.37
2018-06-03T11:09:58.346Z,11.15
2018-06-03T11:12:26.983Z,10.80
2018-06-03T11:14:55.637Z,10.15
2018-06-03T11:17:24.316Z,9.20
2018-06-03T11:19:52.980Z,10.68
2018-06-03T11:22:21.618Z,9.00
2018-06-03T11:24:50.512Z,9.68
2018-06-03T11:27:19.252Z,8.23
2018-06-03T11:29:47.893Z,10.78
2018-06-03T11:32:16.526Z,11.03
2018-06-03T11:34:45.152Z,10.90
2018-06-03T11:37:13.790Z,11.83
2018-06-03T11:39:42.442Z,10.65
2018-06-03T11:42:11.073Z,10.40
2018-06-03T11:44:39.749Z,10.58
2018-06-03T11:47:08.398Z,10.60
2018-06-03T11:49:37.089Z,11.63
2018-06-03T11:52:05.753Z,10.75
2018-06-03T11:54:34.447Z,9.50
2018-06-03T11:57:03.754Z,10.32
2018-06-03T11:59:40.847Z,11.65
2018-06-03T12:02:09.370Z,10.03
2018-06-03T12:04:38.191Z,10.88
2018-06-03T12:07:06.883Z,10.75
2018-06-03T12:09:35.587Z,10.00
2018-06-03T12:12:04.237Z,9.43
2018-06-03T12:14:32.930Z,11.10
2018-06-03T12:17:01.648Z,10.48
2018-06-03T12:19:31.237Z,10.95
2018-06-03T12:21:59.885Z,10.53
2018-06-03T12:24:28.583Z,11.43
2018-06-03T12:26:57.232Z,10.38
2018-06-03T12:29:25.903Z,11.33
2018-06-03T12:31:54.574Z,12.13
2018-06-03T12:34:23.273Z,12.65
2018-06-03T12:36:51.909Z,13.00
2018-06-03T12:39:20.669Z,13.20
2018-06-03T12:41:49.367Z,13.28
2018-06-03T12:44:18.028Z,11.85
2018-06-03T12:46:46.689Z,12.60
2018-06-03T12:49:16.273Z,13.68
2018-06-03T12:51:44.987Z,13.40
2018-06-03T12:54:13.645Z,12.20
2018-06-03T12:56:42.322Z,11.65
2018-06-03T12:59:11.034Z,11.45
2018-06-03T13:01:39.748Z,12.53
2018-06-03T13:04:08.380Z,13.25
2018-06-03T13:06:37.064Z,12.28
2018-06-03T13:09:07.062Z,12.70
2018-06-03T13:11:35.727Z,12.60
2018-06-03T13:14:04.466Z,12.85
2018-06-03T13:16:33.207Z,12.13
2018-06-03T13:19:01.823Z,11.63
2018-06-03T13:21:30.469Z,13.05
2018-06-03T13:23:59.149Z,12.25
2018-06-03T13:26:27.818Z,11.53
2018-06-03T13:28:56.491Z,11.35
2018-06-03T13:31:25.113Z,11.45
2018-06-03T13:33:53.764Z,11.15
2018-06-03T13:36:22.404Z,13.08
2018-06-03T13:38:51.269Z,11.48
2018-06-03T13:41:19.944Z,10.98
2018-06-03T13:43:48.610Z,11.63
2018-06-03T13:46:17.240Z,11.05
2018-06-03T13:48:45.929Z,10.90
2018-06-03T13:51:14.568Z,11.03
2018-06-03T13:53:43.225Z,10.25
2018-06-03T13:56:12.035Z,10.48
2018-06-03T13:58:40.751Z,10.58
2018-06-03T14:01:09.414Z,9.65
2018-06-03T14:03:42.100Z,8.78
2018-06-03T14:06:10.750Z,9.68
2018-06-03T14:08:39.430Z,9.50
2018-06-03T14:11:08.098Z,8.93
2018-06-03T14:13:41.828Z,11.03
2018-06-03T14:16:14.997Z,10.80
2018-06-03T14:18:43.857Z,11.03
2018-06-03T14:21:12.499Z,10.45
2018-06-03T14:23:41.162Z,9.13
2018-06-03T14:26:12.534Z,11.25
2018-06-03T14:28:41.191Z,10.00
2018-06-03T14:31:09.841Z,10.30
2018-06-03T14:33:38.505Z,10.63
2018-06-03T14:36:07.181Z,10.32
2018-06-03T14:38:35.829Z,9.80
2018-06-03T14:41:04.471Z,8.80
2018-06-03T14:43:33.129Z,10.53
2018-06-03T14:46:01.758Z,9.65
2018-06-03T14:48:30.361Z,10.28
2018-06-03T14:50:59.056Z,11.97
2018-06-03T14:53:27.699Z,11.20
2018-06-03T14:55:56.377Z,10.63
2018-06-03T14:58:25.000Z,10.53
2018-06-03T15:00:53.666Z,10.70
2018-06-03T15:03:22.302Z,11.20
2018-06-03T15:05:50.962Z,10.90
2018-06-03T15:08:19.656Z,10.88
2018-06-03T15:10:48.346Z,11.43
2018-06-03T15:13:17.125Z,14.23
2018-06-03T15:15:45.428Z,10.80
2018-06-03T15:18:14.072Z,11.43
2018-06-03T15:20:42.780Z,12.23
2018-06-03T15:23:11.454Z,9.38
2018-06-03T15:25:40.435Z,10.63
2018-06-03T15:28:09.090Z,11.20
2018-06-03T15:30:37.844Z,11.93
2018-06-03T15:33:06.491Z,12.70
2018-06-03T15:35:35.167Z,10.58
2018-06-03T15:38:03.842Z,11.25
2018-06-03T15:40:32.546Z,9.28
2018-06-03T15:43:01.236Z,10.35
2018-06-03T15:45:29.941Z,10.65
2018-06-03T15:47:58.629Z,10.65
2018-06-03T15:50:27.637Z,9.25
2018-06-03T15:52:57.645Z,10.10
2018-06-03T15:55:27.031Z,9.90
2018-06-03T15:57:55.697Z,10.03
2018-06-03T16:00:24.025Z,9.05
2018-06-03T16:02:52.782Z,8.85
2018-06-03T16:05:21.433Z,9.08
2018-06-03T16:07:50.374Z,7.15
2018-06-03T16:10:19.074Z,7.42
2018-06-03T16:12:47.758Z,8.53
2018-06-03T16:15:16.482Z,7.75
2018-06-03T16:17:45.136Z,7.67
2018-06-03T16:20:13.821Z,8.35
2018-06-03T16:22:42.468Z,8.85
2018-06-03T16:25:11.149Z,9.28
2018-06-03T16:27:39.861Z,8.73
2018-06-03T16:30:08.700Z,7.17
2018-06-03T16:32:37.375Z,8.03
2018-06-03T16:35:06.178Z,8.73
2018-06-03T16:37:34.843Z,9.20
2018-06-03T16:40:03.590Z,8.20
2018-06-03T16:42:32.274Z,7.87
2018-06-03T16:45:01.005Z,7.40
2018-06-03T16:47:29.640Z,9.10
2018-06-03T16:49:58.310Z,7.90
2018-06-03T16:52:26.970Z,7.95
2018-06-03T16:54:55.658Z,8.23
2018-06-03T16:57:24.397Z,9.05
2018-06-03T16:59:53.135Z,7.97
2018-06-03T17:02:21.913Z,7.78
2018-06-03T17:04:50.583Z,8.18
2018-06-03T17:07:19.232Z,8.48
2018-06-03T17:09:47.869Z,7.10
2018-06-03T17:12:16.532Z,8.28
2018-06-03T17:14:45.412Z,8.73
2018-06-03T17:17:14.122Z,8.83
2018-06-03T17:19:42.776Z,7.70
2018-06-03T17:22:11.470Z,7.78
2018-06-03T17:24:40.289Z,8.05
2018-06-03T17:27:08.934Z,7.35
2018-06-03T17:29:37.572Z,7.25
2018-06-03T17:32:06.245Z,7.47
2018-06-03T17:34:34.899Z,7.70
2018-06-03T17:37:03.553Z,8.15
2018-06-03T17:39:33.034Z,8.08
2018-06-03T17:42:01.727Z,8.05
2018-06-03T17:44:30.417Z,8.25
2018-06-03T17:46:59.138Z,6.80
2018-06-03T17:49:27.789Z,8.60
2018-06-03T17:51:56.482Z,9.40
2018-06-03T17:54:25.143Z,8.28
2018-06-03T17:56:53.835Z,10.80
2018-06-03T17:59:22.533Z,10.32
2018-06-03T18:01:51.193Z,10.95
2018-06-03T18:04:19.891Z,11.12
2018-06-03T18:06:48.557Z,10.98
2018-06-03T18:09:17.240Z,9.08
2018-06-03T18:11:45.895Z,9.48
2018-06-03T18:14:14.550Z,8.45
2018-06-03T18:16:43.250Z,9.43
2018-06-03T18:19:12.006Z,12.05
2018-06-03T18:21:40.689Z,10.05
2018-06-03T18:24:09.384Z,10.08
2018-06-03T18:26:38.060Z,9.98
2018-06-03T18:29:06.769Z,9.85
2018-06-03T18:31:35.438Z,9.58
2018-06-03T18:34:04.154Z,10.20
2018-06-03T18:36:32.824Z,9.93
2018-06-03T18:39:01.801Z,9.15
2018-06-03T18:41:30.489Z,9.23
2018-06-03T18:43:59.169Z,8.70
2018-06-03T18:46:27.823Z,8.85
2018-06-03T18:48:56.469Z,9.38
2018-06-03T18:51:25.229Z,9.18
2018-06-03T18:53:53.889Z,8.70
2018-06-03T18:56:22.563Z,8.65
2018-06-03T18:58:51.169Z,7.30
2018-06-03T19:01:19.855Z,8.40
2018-06-03T19:03:48.496Z,7.72
2018-06-03T19:06:17.121Z,7.62
2018-06-03T19:08:46.006Z,7.58
2018-06-03T19:11:14.653Z,8.80
2018-06-03T19:13:43.442Z,10.08
2018-06-03T19:16:18.613Z,9.50
2018-06-03T19:18:47.789Z,8.95
2018-06-03T19:21:16.502Z,9.58
2018-06-03T19:23:45.188Z,9.15
2018-06-03T19:26:13.829Z,8.70
2018-06-03T19:28:42.478Z,9.23
2018-06-03T19:31:11.129Z,8.63
2018-06-03T19:33:39.783Z,8.78
2018-06-03T19:36:08.447Z,8.95
2018-06-03T19:38:37.079Z,8.85
2018-06-03T19:41:05.872Z,8.30
2018-06-03T19:43:34.556Z,8.53
2018-06-03T19:46:03.203Z,9.98
2018-06-03T19:48:31.892Z,9.60
2018-06-03T19:51:00.578Z,9.00
2018-06-03T19:53:28.880Z,8.63
2018-06-03T19:55:57.530Z,8.85
2018-06-03T19:58:26.200Z,8.90
2018-06-03T20:00:54.846Z,9.30
2018-06-03T20:03:23.527Z,9.15
2018-06-03T20:05:52.225Z,9.43
2018-06-03T20:08:20.849Z,8.08
2018-06-03T20:10:49.917Z,9.63
2018-06-03T20:13:18.510Z,8.95
2018-06-03T20:15:47.363Z,8.60
2018-06-03T20:18:16.437Z,8.50
2018-06-03T20:20:45.057Z,8.98
2018-06-03T20:23:20.279Z,8.70
2018-06-03T20:25:48.905Z,8.78
2018-06-03T20:28:17.531Z,8.80
2018-06-03T20:30:46.228Z,8.45
2018-06-03T20:33:14.910Z,9.15
2018-06-03T20:35:43.538Z,8.60
2018-06-03T20:38:12.212Z,9.18
2018-06-03T20:40:40.889Z,9.30
2018-06-03T20:43:09.615Z,8.98
2018-06-03T20:45:38.328Z,9.55
2018-06-03T20:48:07.023Z,8.80
2018-06-03T20:50:35.685Z,9.40
2018-06-03T20:53:04.319Z,9.15
2018-06-03T20:55:33.033Z,8.63
2018-06-03T20:58:01.719Z,9.08
2018-06-03T21:00:30.394Z,9.18
2018-06-03T21:02:59.062Z,7.90
2018-06-03T21:05:27.716Z,8.25
2018-06-03T21:07:56.522Z,8.95
2018-06-03T21:10:25.165Z,8.53
2018-06-03T21:12:53.857Z,8.93
2018-06-03T21:15:22.501Z,8.83
2018-06-03T21:17:51.180Z,8.53
2018-06-03T21:20:19.869Z,8.20
2018-06-03T21:22:48.720Z,8.80
2018-06-03T21:25:17.447Z,9.85
2018-06-03T21:27:45.749Z,9.25
2018-06-03T21:30:14.408Z,9.95
2018-06-03T21:32:43.057Z,9.18
2018-06-03T21:35:11.763Z,9.20
2018-06-03T21:37:40.408Z,9.88
2018-06-03T21:40:09.087Z,9.03
2018-06-03T21:42:37.692Z,8.83
2018-06-03T21:45:06.386Z,9.23
2018-06-03T21:47:35.175Z,8.83
2018-06-03T21:50:10.277Z,9.13
2018-06-03T21:52:38.903Z,8.78
2018-06-03T21:55:07.543Z,9.68
2018-06-03T21:57:36.244Z,7.62
2018-06-03T22:00:05.658Z,9.33
2018-06-03T22:02:34.323Z,8.55
2018-06-03T22:05:03.005Z,9.48
2018-06-03T22:07:31.682Z,8.58
2018-06-03T22:10:00.347Z,9.15
2018-06-03T22:12:29.560Z,9.35
2018-06-03T22:14:58.206Z,7.28
2018-06-03T22:17:27.104Z,7.37
2018-06-03T22:19:55.767Z,7.70
2018-06-03T22:22:24.415Z,7.72
2018-06-03T22:24:53.096Z,9.75
2018-06-03T22:27:21.746Z,8.90
2018-06-03T22:29:50.447Z,9.55
2018-06-03T22:32:19.136Z,9.43
2018-06-03T22:34:47.805Z,8.98
2018-06-03T22:37:16.460Z,8.93
2018-06-03T22:39:45.125Z,7.72
2018-06-03T22:42:13.786Z,8.50
2018-06-03T22:44:42.538Z,9.10
2018-06-03T22:47:11.242Z,9.13
2018-06-03T22:49:39.939Z,8.80
2018-06-03T22:52:08.639Z,9.50
2018-06-03T22:54:37.267Z,9.30
2018-06-03T22:57:44.252Z,10.33
2018-06-03T23:00:19.990Z,9.03
2018-06-03T23:02:54.329Z,8.83
2018-06-03T23:05:23.009Z,8.80
2018-06-03T23:07:52.165Z,10.93
2018-06-03T23:10:21.023Z,11.10
2018-06-03T23:12:49.991Z,10.53
2018-06-03T23:15:18.714Z,11.13
2018-06-03T23:17:47.419Z,10.93
2018-06-03T23:20:16.110Z,9.03
2018-06-03T23:22:44.749Z,10.00
2018-06-03T23:25:13.441Z,10.03
2018-06-03T23:27:42.415Z,10.27
2018-06-03T23:30:11.064Z,10.30
2018-06-03T23:32:39.738Z,11.50
2018-06-03T23:35:08.475Z,11.80
2018-06-03T23:37:37.120Z,12.47
2018-06-03T23:40:05.781Z,12.37
2018-06-03T23:42:34.501Z,11.10
2018-06-03T23:45:03.129Z,11.30
2018-06-03T23:47:31.794Z,10.93
2018-06-03T23:50:00.461Z,12.00
2018-06-03T23:52:29.132Z,12.53
2018-06-03T23:54:57.790Z,13.93
2018-06-03T23:57:26.461Z,12.87
2018-06-03T23:59:55.113Z,12.73
